Terminal Aerodrome Forecast
Issued by NWS

Home | Current Version | Previous Version | Text Only | Print | Product List | Glossary On
Versions: 1 2 3 4 5 6 7 8 9 10 11 12
000
FTUS43 KILX 312300
TAFDEC
TAF
KDEC 312323Z 0100/0124 VRB03KT P6SM SCT070
     FM010900 VRB02KT 6SM BR SCT060
     FM011500 VRB04KT P6SM SCT060 BKN250
     FM011800 24003KT P6SM VCTS BKN060CB=

USA.gov is the U.S. government's official web portal to all federal, state and local government web resources and services.